Anahola, Hawaii
Current Conditions -  °F | °C
As of 7:53 AM on Friday 24 Oct 2014 (Local Time) from PHLI Reporting Station
Broken Clouds Broken Clouds  
Wind Chill: 79°   Ceiling: 6500
Heat Index: 82°   Visibility: 10mi
Dew Point: 71°   Wind: 10mph
Humidity: 77%   Direction: 50°NE
Pressure: 30.07"   Gusts: NA
Location:  22.14°N, 159.31°W
Report Text: PHLI 241753Z 05009KT 10SM FEW020 SCT028 BKN065 26/22 A3007 RMK AO2 SLP178 60003 T02610217 10267 20250 53016
Loading
Personal Weather Stations






























Interactive Weather Map New forecast layout! Learn more

10-Day Weather Forecast

Advertisements
Track Severe Weather on mobile